Terminal Aerodrome Forecast
Issued by NWS Binghamton, NY

Home | Current Version | Previous Version | Text Only | Print | Product List | Glossary On
Versions: 1 2 3 4 5 6 7 8 9 10 11 12 13 14 15 16 17 18 19 20
000
FTUS41 KBGM 031738
TAFBGM
TAF
KBGM 031738Z 0318/0418 VRB04KT P6SM SCT040
     FM040300 14005KT P6SM SCT015
      TEMPO 0409/0413 4SM BR BKN015
     FM041400 16007KT P6SM BKN035=

USA.gov is the U.S. government's official web portal to all federal, state and local government web resources and services.